Time;durP1;ratioP1;P1;durP2;ratioP2;P2;SDS_P1;SDS_P2;PMS_P1;PMS_P2;Temp;Humidity;BMP_temperature;BMP_pressure;BME280_temperature;BME280_humidity;BME280_pressure;Samples;Min_cycle;Max_cycle;Signal;HPM_P1;HPM_P2
2023/03/24 00:02:36;;;;;;;57.93;32.38;;;;;;;8.12;76.46;100106.33;1769257;81;21212;-82
2023/03/24 00:05:41;;;;;;;63.68;33.50;;;;;;;7.93;77.11;100097.41;1770175;81;21181;-82
2023/03/24 00:08:48;;;;;;;63.15;33.55;;;;;;;7.72;77.94;100089.34;1770051;81;21725;-82
2023/03/24 00:11:54;;;;;;;61.15;33.88;;;;;;;7.64;78.92;100088.78;1770050;81;21232;-83
2023/03/24 00:15:01;;;;;;;66.33;33.02;;;;;;;7.63;79.55;100088.44;1770080;81;21186;-82
2023/03/24 00:18:09;;;;;;;72.58;34.38;;;;;;;7.50;80.48;100094.83;1768954;81;21350;-82
2023/03/24 00:21:15;;;;;;;76.20;36.03;;;;;;;7.52;80.23;100095.00;1770062;81;21186;-82
2023/03/24 00:24:21;;;;;;;77.40;35.55;;;;;;;7.45;81.07;100096.67;1770207;81;21177;-82
2023/03/24 00:27:29;;;;;;;66.15;35.08;;;;;;;7.49;81.22;100098.06;1768668;81;21185;-82
2023/03/24 00:30:35;;;;;;;66.70;35.10;;;;;;;7.45;81.66;100102.63;1768585;81;21276;-82
2023/03/24 00:33:42;;;;;;;68.80;33.83;;;;;;;7.54;80.37;100098.94;1769734;81;21221;-82
2023/03/24 00:36:49;;;;;;;71.82;34.63;;;;;;;7.48;79.74;100100.45;1768017;81;21490;-82
2023/03/24 00:39:58;;;;;;;59.53;32.80;;;;;;;7.25;79.96;100100.12;1768547;81;21177;-82
2023/03/24 00:43:04;;;;;;;66.00;32.75;;;;;;;7.04;80.74;100109.14;1768713;81;21237;-82
2023/03/24 00:46:26;;;;;;;64.45;33.70;;;;;;;6.89;81.17;100102.06;1746150;81;21232;-82
2023/03/24 00:49:43;;;;;;;71.85;33.55;;;;;;;6.65;82.22;100095.92;1768741;81;21178;-82
2023/03/24 00:52:35;;;;;;;70.22;33.23;;;;;;;6.50;82.86;100094.77;1769877;81;21586;-81
2023/03/24 00:55:41;;;;;;;66.77;36.35;;;;;;;6.53;82.60;100089.85;1770058;81;21179;-82
2023/03/24 00:58:47;;;;;;;80.30;39.18;;;;;;;6.44;83.14;100095.37;1768974;81;21279;-83
2023/03/24 01:01:55;;;;;;;86.35;42.43;;;;;;;6.32;84.16;100096.97;1768391;81;21233;-82
2023/03/24 01:05:02;;;;;;;88.03;42.85;;;;;;;6.26;85.48;100099.45;1768672;81;22218;-83
2023/03/24 01:08:09;;;;;;;84.28;39.63;;;;;;;6.55;85.37;100107.38;1769608;81;21220;-82
2023/03/24 01:11:15;;;;;;;87.35;41.85;;;;;;;6.47;85.75;100101.86;1770061;81;21334;-82
2023/03/24 01:14:21;;;;;;;85.32;45.28;;;;;;;6.31;86.67;100099.34;1768779;81;21209;-82
2023/03/24 01:17:28;;;;;;;115.50;53.15;;;;;;;6.34;86.84;100094.94;1769957;81;21823;-82
2023/03/24 01:20:34;;;;;;;150.80;63.00;;;;;;;6.43;87.00;100096.38;1769987;81;21161;-82
2023/03/24 01:23:41;;;;;;;146.98;63.10;;;;;;;6.24;87.07;100106.88;1770060;81;21228;-83
2023/03/24 01:26:46;;;;;;;118.77;53.83;;;;;;;6.09;88.09;100101.98;1770077;81;21169;-82
2023/03/24 01:29:53;;;;;;;114.37;50.63;;;;;;;6.02;88.90;100100.02;1768610;81;21180;-82
2023/03/24 01:33:00;;;;;;;93.40;44.13;;;;;;;5.97;89.64;100102.33;1768834;81;21193;-82
2023/03/24 01:36:06;;;;;;;90.22;44.13;;;;;;;5.93;88.98;100096.38;1768766;81;21233;-82
2023/03/24 01:39:12;;;;;;;104.15;49.05;;;;;;;5.89;88.54;100094.42;1769198;81;21237;-82
2023/03/24 01:42:25;;;;;;;101.22;46.40;;;;;;;5.85;88.60;100107.09;1770295;81;21260;-82
2023/03/24 01:45:54;;;;;;;86.47;44.75;;;;;;;5.79;89.31;100094.98;1770137;81;21768;-82
2023/03/24 01:49:13;;;;;;;103.20;46.63;;;;;;;5.80;90.20;100106.70;1769609;81;21165;-82
2023/03/24 01:52:25;;;;;;;91.47;43.35;;;;;;;5.92;90.02;100104.64;1770275;81;21241;-82
2023/03/24 01:55:31;;;;;;;87.20;45.43;;;;;;;5.96;90.11;100106.06;1770116;81;21237;-82
2023/03/24 01:58:40;;;;;;;88.70;45.92;;;;;;;5.95;90.23;100103.00;1769812;81;21506;-82
2023/03/24 02:02:01;;;;;;;90.42;43.48;;;;;;;5.94;90.29;100104.02;1768573;81;21186;-81
2023/03/24 02:05:09;;;;;;;98.07;49.48;;;;;;;5.95;90.06;100105.20;1768719;81;21169;-82
2023/03/24 02:08:22;;;;;;;;;;;;;;;5.84;89.92;100106.75;1771244;81;21185;-82
2023/03/24 02:11:28;;;;;;;110.37;53.05;;;;;;;5.82;89.70;100112.30;1770172;81;20211;-82
2023/03/24 02:14:35;;;;;;;102.95;49.35;;;;;;;5.79;89.47;100116.70;1768545;81;21197;-82
2023/03/24 02:17:57;;;;;;;115.85;53.58;;;;;;;5.78;89.10;100112.25;1770141;81;21779;-82
2023/03/24 02:21:58;;;;;;;120.85;59.00;;;;;;;5.74;89.11;100110.88;1770217;81;21189;-82
2023/03/24 02:25:43;;;;;;;117.40;53.30;;;;;;;5.74;89.12;100113.59;1770211;81;21228;-82
2023/03/24 02:29:18;;;;;;;94.95;43.95;;;;;;;5.75;90.09;100111.72;1769964;81;21185;-82
2023/03/24 02:32:31;;;;;;;72.78;41.70;;;;;;;5.84;91.11;100121.17;1770228;81;21220;-81
2023/03/24 02:35:54;;;;;;;70.08;39.50;;;;;;;5.92;91.55;100119.07;1770260;81;21222;-82
2023/03/24 02:39:26;;;;;;;82.05;40.23;;;;;;;5.94;91.74;100127.94;1769929;81;21265;-82
2023/03/24 02:43:02;;;;;;;57.88;34.73;;;;;;;5.99;91.57;100124.27;1770180;81;21178;-82
2023/03/24 02:46:27;;;;;;;77.03;36.88;;;;;;;6.00;91.53;100126.47;1770116;81;21169;-82
2023/03/24 02:50:06;;;;;;;78.83;36.00;;;;;;;6.04;92.05;100135.52;1769612;81;21197;-82
2023/03/24 02:53:26;;;;;;;67.92;36.55;;;;;;;6.10;92.24;100134.05;1770193;81;21228;-82
2023/03/24 02:57:14;;;;;;;68.85;37.88;;;;;;;6.32;91.61;100133.64;1770181;81;21181;-81
2023/03/24 03:00:48;;;;;;;63.58;35.78;;;;;;;6.30;92.26;100133.42;1769104;81;21220;-81
2023/03/24 03:04:15;;;;;;;64.07;34.08;;;;;;;6.18;93.11;100139.59;1769422;80;21279;-81
2023/03/24 03:07:21;;;;;;;64.20;34.38;;;;;;;6.40;92.45;100136.45;1774189;81;21229;-81
2023/03/24 03:10:25;;;;;;;61.83;34.75;;;;;;;6.35;93.12;100121.12;1773350;81;21197;-82
2023/03/24 03:13:34;;;;;;;62.85;33.23;;;;;;;6.32;93.37;100130.07;1774142;81;21185;-81
2023/03/24 03:16:45;;;;;;;65.42;34.23;;;;;;;6.38;93.61;100131.66;1774051;81;21720;-83
2023/03/24 03:20:05;;;;;;;64.00;32.88;;;;;;;6.35;93.65;100131.98;1773612;81;21192;-82
2023/03/24 03:23:19;;;;;;;60.70;35.28;;;;;;;6.39;93.70;100144.22;1773525;81;21217;-83
2023/03/24 03:26:27;;;;;;;57.95;32.25;;;;;;;6.50;93.38;100143.17;1774133;81;21240;-82
2023/03/24 03:29:35;;;;;;;68.83;33.83;;;;;;;6.50;93.20;100150.47;1773460;81;21228;-82
2023/03/24 03:32:44;;;;;;;67.80;33.92;;;;;;;6.47;93.14;100156.20;1772523;80;21248;-82
2023/03/24 03:35:54;;;;;;;62.40;32.05;;;;;;;6.48;93.58;100163.34;1772566;81;21185;-81
2023/03/24 03:39:14;;;;;;;66.90;32.45;;;;;;;6.50;93.81;100163.55;1773207;81;22242;-82
2023/03/24 03:42:21;;;;;;;61.73;32.78;;;;;;;6.50;93.78;100168.14;1774007;81;21351;-83
2023/03/24 03:45:28;;;;;;;60.52;31.93;;;;;;;6.52;94.01;100168.31;1772682;81;21173;-83
2023/03/24 03:48:35;;;;;;;52.00;31.45;;;;;;;6.61;94.12;100166.55;1774161;81;21237;-84
2023/03/24 03:51:42;;;;;;;68.07;32.60;;;;;;;6.73;93.92;100166.67;1772591;81;21190;-82
2023/03/24 03:54:49;;;;;;;67.08;31.60;;;;;;;6.79;93.67;100157.89;1773694;81;21225;-82
2023/03/24 03:57:56;;;;;;;57.05;30.65;;;;;;;6.82;93.62;100157.59;1772310;81;21177;-82
2023/03/24 04:01:02;;;;;;;58.50;30.40;;;;;;;6.88;93.58;100165.11;1772900;81;21221;-82
2023/03/24 04:04:48;;;;;;;51.42;28.50;;;;;;;6.94;93.35;100162.78;1770577;81;21209;-82
2023/03/24 04:08:20;;;;;;;57.00;29.87;;;;;;;7.02;92.85;100160.98;1770037;81;21189;-82
2023/03/24 04:12:08;;;;;;;74.55;35.83;;;;;;;7.09;92.54;100158.48;1763117;81;21197;-83
2023/03/24 04:15:50;;;;;;;81.90;41.85;;;;;;;7.14;92.32;100150.19;1698674;81;21372;-82
2023/03/24 04:19:42;;;;;;;111.83;59.42;;;;;;;7.24;91.79;100151.95;1768116;81;21184;-82
2023/03/24 04:23:17;;;;;;;72.45;38.92;;;;;;;7.36;91.70;100148.83;1741697;81;21229;-82
2023/03/24 04:26:59;;;;;;;66.85;34.33;;;;;;;7.47;91.32;100144.98;1770006;81;21185;-83
2023/03/24 04:30:38;;;;;;;84.83;43.25;;;;;;;7.54;90.13;100137.89;1769015;81;21225;-82
2023/03/24 04:34:02;;;;;;;61.48;33.28;;;;;;;7.69;89.80;100144.95;1768823;81;21169;-82
2023/03/24 04:37:21;;;;;;;66.65;33.28;;;;;;;7.80;89.02;100148.73;1770096;81;21221;-82
2023/03/24 04:40:28;;;;;;;78.25;41.37;;;;;;;7.90;87.97;100141.81;1769916;81;21232;-83
2023/03/24 04:43:37;;;;;;;73.67;37.05;;;;;;;8.07;87.50;100135.94;1770118;81;21189;-82
2023/03/24 04:46:43;;;;;;;82.62;36.77;;;;;;;8.26;87.68;100142.47;1770008;81;21239;-82
2023/03/24 04:49:49;;;;;;;57.30;33.35;;;;;;;8.50;88.11;100148.53;1770002;81;21233;-82
2023/03/24 04:52:56;;;;;;;69.90;32.70;;;;;;;8.80;88.50;100147.06;1768596;81;21843;-82
2023/03/24 04:56:37;;;;;;;56.08;30.75;;;;;;;9.12;89.16;100142.10;1769963;81;21663;-82
2023/03/24 04:59:48;;;;;;;57.30;32.88;;;;;;;9.47;88.84;100140.89;1769910;81;21197;-82
2023/03/24 05:02:55;;;;;;;60.58;33.38;;;;;;;9.70;88.68;100142.90;1768608;81;21237;-82
2023/03/24 05:06:04;;;;;;;56.90;31.42;;;;;;;9.93;88.27;100138.91;1767548;81;21728;-82
2023/03/24 05:09:10;;;;;;;52.25;30.40;;;;;;;10.13;88.39;100142.91;1768795;81;21196;-81
2023/03/24 05:12:17;;;;;;;53.15;29.23;;;;;;;10.38;87.61;100152.39;1768644;81;21235;-82
2023/03/24 05:15:30;;;;;;;62.58;32.70;;;;;;;10.54;86.76;100144.11;1735528;81;21205;-82
2023/03/24 05:18:40;;;;;;;60.38;31.97;;;;;;;10.70;86.26;100143.14;1770267;81;21229;-82
2023/03/24 05:21:46;;;;;;;62.58;31.77;;;;;;;10.88;86.11;100144.22;1769311;81;21744;-82
2023/03/24 05:24:52;;;;;;;62.33;32.20;;;;;;;11.03;85.55;100145.64;1770065;81;21201;-82
2023/03/24 05:27:59;;;;;;;71.57;35.45;;;;;;;11.04;85.77;100154.19;1770179;81;21304;-82
2023/03/24 05:31:05;;;;;;;69.50;37.35;;;;;;;11.25;84.59;100150.25;1770104;81;21251;-82
2023/03/24 05:34:13;;;;;;;67.22;34.55;;;;;;;11.36;83.78;100147.06;1770518;81;21196;-82
2023/03/24 05:37:22;;;;;;;64.45;33.20;;;;;;;11.46;83.12;100147.64;1770092;81;21161;-82
2023/03/24 05:40:30;;;;;;;63.30;31.40;;;;;;;11.57;82.40;100152.33;1770096;81;21748;-82
2023/03/24 05:43:37;;;;;;;57.08;31.23;;;;;;;11.55;82.46;100154.42;1770217;81;21736;-82
2023/03/24 05:46:43;;;;;;;47.27;26.42;;;;;;;11.62;82.15;100154.87;1770454;81;21149;-82
2023/03/24 05:49:50;;;;;;;55.25;26.80;;;;;;;11.69;82.00;100160.44;1770498;81;21287;-82
2023/03/24 05:52:57;;;;;;;59.67;26.12;;;;;;;11.77;81.60;100153.51;1769245;81;21743;-82
2023/03/24 05:56:10;;;;;;;50.25;23.00;;;;;;;11.85;80.73;100157.53;1764890;81;21181;-83
2023/03/24 05:59:17;;;;;;;54.88;25.15;;;;;;;11.98;79.85;100165.11;1770692;81;21184;-83
2023/03/24 06:02:25;;;;;;;51.25;25.45;;;;;;;12.07;79.15;100164.50;1751518;81;21272;-83
2023/03/24 06:05:33;;;;;;;50.95;25.35;;;;;;;12.15;78.74;100169.90;1749635;81;21227;-82
2023/03/24 06:08:40;;;;;;;47.85;23.65;;;;;;;12.22;78.59;100171.67;1713708;82;21507;-82
2023/03/24 06:11:48;;;;;;;53.38;23.90;;;;;;;12.30;78.72;100173.47;1755776;81;21181;-82
2023/03/24 06:14:56;;;;;;;69.50;29.82;;;;;;;12.41;78.46;100169.37;1738129;82;21245;-82
2023/03/24 06:18:04;;;;;;;59.67;29.12;;;;;;;12.55;78.18;100171.24;1742788;81;21198;-82
2023/03/24 06:21:09;;;;;;;52.27;27.70;;;;;;;12.73;77.97;100165.34;1759123;81;21723;-82
2023/03/24 06:24:15;;;;;;;49.45;25.35;;;;;;;12.95;78.29;100172.56;1758449;81;21208;-83
2023/03/24 06:27:30;;;;;;;41.48;23.87;;;;;;;13.23;77.88;100167.69;1738867;82;21155;-82
2023/03/24 06:30:35;;;;;;;49.25;21.87;;;;;;;13.52;77.65;100163.40;1713995;82;22262;-84
2023/03/24 06:33:44;;;;;;;34.20;19.27;;;;;;;13.74;77.35;100157.34;1710715;82;22195;-84
2023/03/24 06:36:49;;;;;;;42.55;19.15;;;;;;;14.06;75.94;100168.20;1731250;82;21248;-84
2023/03/24 06:39:55;;;;;;;45.17;16.95;;;;;;;14.31;74.75;100167.72;1731361;82;21209;-82
2023/03/24 06:43:02;;;;;;;29.25;16.27;;;;;;;14.38;73.01;100168.59;1718110;82;21240;-82
2023/03/24 06:46:08;;;;;;;38.10;17.48;;;;;;;14.46;70.86;100160.17;1729953;81;21189;-83
2023/03/24 06:49:07;;;;;;;;;;;;;;;14.48;70.08;100160.83;1732674;82;21161;-82
2023/03/24 06:52:12;;;;;;;39.80;19.85;;;;;;;14.35;69.78;100170.39;1722722;83;20679;-82
2023/03/24 06:55:21;;;;;;;38.28;17.70;;;;;;;14.29;69.95;100164.31;1691513;82;21220;-82
2023/03/24 06:58:29;;;;;;;37.28;18.87;;;;;;;14.16;70.43;100165.11;1727828;82;21165;-82
2023/03/24 07:01:37;;;;;;;35.33;18.82;;;;;;;14.28;70.68;100163.47;1727970;82;21238;-85
2023/03/24 07:04:45;;;;;;;25.10;16.12;;;;;;;14.36;70.90;100166.58;1743803;81;21173;-82
2023/03/24 07:07:53;;;;;;;43.40;17.80;;;;;;;14.41;70.86;100157.19;1748960;80;21198;-82
2023/03/24 07:11:04;;;;;;;31.77;15.83;;;;;;;14.53;70.92;100160.22;1745188;81;21181;-82
2023/03/24 07:14:15;;;;;;;33.00;14.00;;;;;;;14.79;69.88;100161.69;1743669;81;21293;-82
2023/03/24 07:17:21;;;;;;;29.57;15.50;;;;;;;14.96;67.61;100155.28;1747598;81;21209;-82
2023/03/24 07:20:27;;;;;;;36.85;14.33;;;;;;;15.09;66.78;100163.55;1745006;81;21822;-83
2023/03/24 07:23:45;;;;;;;27.80;15.35;;;;;;;15.43;66.70;100149.80;1748502;81;22722;-82
2023/03/24 07:26:53;;;;;;;33.65;16.25;;;;;;;15.60;65.07;100158.81;1736264;82;21240;-82
2023/03/24 07:29:59;;;;;;;31.02;13.50;;;;;;;15.76;63.64;100159.47;1739641;82;21214;-83
2023/03/24 07:33:11;;;;;;;25.97;13.95;;;;;;;15.85;62.07;100162.31;1710582;82;21452;-83
2023/03/24 07:36:16;;;;;;;26.77;13.50;;;;;;;15.95;60.93;100161.88;1749586;81;21193;-83
2023/03/24 07:39:23;;;;;;;32.63;15.53;;;;;;;16.08;60.81;100163.23;1730701;81;21185;-82
2023/03/24 07:42:29;;;;;;;38.53;15.80;;;;;;;16.34;60.53;100166.47;1724334;82;21237;-82
2023/03/24 07:45:42;;;;;;;34.27;14.73;;;;;;;16.65;60.27;100163.46;1703073;82;21214;-82
2023/03/24 07:48:51;;;;;;;41.08;14.25;;;;;;;16.88;58.79;100165.18;1726812;82;21165;-82
2023/03/24 07:51:58;;;;;;;24.85;12.47;;;;;;;17.04;56.91;100161.06;1722273;82;21177;-82
2023/03/24 07:55:07;;;;;;;30.23;12.23;;;;;;;17.09;56.02;100160.70;1721071;82;21906;-84
2023/03/24 07:58:14;;;;;;;22.27;12.05;;;;;;;17.10;55.92;100162.94;1749895;81;21564;-82
2023/03/24 08:01:25;;;;;;;28.42;11.18;;;;;;;17.16;54.55;100162.57;1741664;81;21191;-82
2023/03/24 08:04:32;;;;;;;32.38;13.78;;;;;;;17.05;54.84;100159.45;1753159;81;21271;-82
2023/03/24 08:07:56;;;;;;;28.57;13.58;;;;;;;16.97;54.61;100159.71;1722458;82;21193;-83
2023/03/24 08:11:03;;;;;;;23.77;13.08;;;;;;;17.04;54.51;100156.39;1721706;82;21232;-83
2023/03/24 08:14:09;;;;;;;29.50;13.88;;;;;;;17.09;54.63;100155.18;1748477;81;21241;-83
2023/03/24 08:17:15;;;;;;;21.95;11.53;;;;;;;17.11;54.49;100148.88;1749816;81;21799;-83
2023/03/24 08:20:23;;;;;;;21.87;13.53;;;;;;;17.07;54.28;100139.34;1720162;82;21222;-83
2023/03/24 08:23:30;;;;;;;28.40;13.43;;;;;;;16.95;54.09;100145.28;1725484;81;21289;-84
2023/03/24 08:26:37;;;;;;;26.85;14.45;;;;;;;16.95;53.31;100147.20;1728781;81;21216;-83
2023/03/24 08:29:42;;;;;;;24.63;11.73;;;;;;;16.97;53.94;100136.77;1746402;81;21211;-82
2023/03/24 08:32:54;;;;;;;31.57;13.43;;;;;;;17.09;54.33;100134.45;1736257;82;21232;-83
2023/03/24 08:36:00;;;;;;;25.35;10.05;;;;;;;17.18;54.86;100135.04;1726521;82;21220;-83
2023/03/24 08:39:08;;;;;;;22.77;9.18;;;;;;;17.33;54.69;100135.55;1734011;82;21875;-83
2023/03/24 08:42:14;;;;;;;20.40;9.75;;;;;;;17.58;53.45;100139.69;1739977;81;21177;-83
2023/03/24 08:45:19;;;;;;;21.73;9.78;;;;;;;17.67;52.52;100132.50;1742627;81;21209;-83
2023/03/24 08:48:26;;;;;;;26.37;10.45;;;;;;;17.75;52.40;100123.95;1741691;81;21545;-83
2023/03/24 08:51:32;;;;;;;21.23;8.98;;;;;;;17.90;51.53;100128.58;1741102;81;21229;-82
2023/03/24 08:54:38;;;;;;;19.52;9.85;;;;;;;17.87;49.61;100124.87;1746293;81;21185;-82
2023/03/24 08:57:44;;;;;;;20.95;9.73;;;;;;;17.84;49.24;100125.35;1727240;82;21755;-82
2023/03/24 09:00:51;;;;;;;21.02;8.98;;;;;;;17.69;49.92;100120.66;1744957;81;21186;-83
2023/03/24 09:03:57;;;;;;;17.73;9.03;;;;;;;17.79;49.24;100116.89;1745926;81;21190;-83
2023/03/24 09:07:04;;;;;;;21.95;10.80;;;;;;;17.74;49.78;100115.35;1749825;81;21217;-83
2023/03/24 09:10:15;;;;;;;32.23;9.95;;;;;;;17.74;49.82;100116.20;1719370;83;21243;-83
2023/03/24 09:13:22;;;;;;;23.90;8.53;;;;;;;17.86;49.75;100109.36;1698238;83;21214;-82
2023/03/24 09:16:30;;;;;;;27.77;8.75;;;;;;;17.96;49.99;100113.81;1682055;85;21189;-83
2023/03/24 09:19:36;;;;;;;22.65;7.95;;;;;;;17.98;48.80;100110.84;1706445;83;21173;-83
2023/03/24 09:22:51;;;;;;;14.78;7.60;;;;;;;17.98;49.05;100110.30;1725198;83;21281;-83
2023/03/24 09:25:58;;;;;;;17.57;7.85;;;;;;;17.99;48.26;100110.61;1730960;83;21238;-83
2023/03/24 09:29:03;;;;;;;25.40;8.75;;;;;;;17.97;48.99;100104.44;1723740;83;21239;-83
2023/03/24 09:32:10;;;;;;;26.07;8.70;;;;;;;18.05;49.57;100106.91;1729292;83;21198;-83
2023/03/24 09:35:15;;;;;;;21.27;8.78;;;;;;;18.18;49.24;100101.77;1705948;83;21748;-83
2023/03/24 09:38:22;;;;;;;20.70;7.92;;;;;;;18.37;48.08;100106.20;1727416;83;21233;-82
2023/03/24 09:41:37;;;;;;;19.17;9.03;;;;;;;18.37;47.98;100103.44;1706433;83;21205;-82
2023/03/24 09:44:49;;;;;;;16.00;7.58;;;;;;;18.62;46.57;100109.39;1714628;83;21401;-83
2023/03/24 09:48:01;;;;;;;26.15;8.93;;;;;;;18.55;46.47;100113.66;1688917;85;21205;-82
2023/03/24 09:51:24;;;;;;;23.38;8.68;;;;;;;18.65;46.43;100107.02;1722962;83;21221;-82
2023/03/24 09:54:38;;;;;;;23.67;8.20;;;;;;;18.58;46.88;100108.17;1683401;85;21724;-82
2023/03/24 09:57:52;;;;;;;16.52;7.33;;;;;;;18.64;47.89;100118.34;1703796;83;21249;-82
2023/03/24 10:00:58;;;;;;;25.48;8.15;;;;;;;18.64;45.59;100113.64;1708371;83;21744;-83
2023/03/24 10:04:06;;;;;;;25.55;8.55;;;;;;;18.55;45.44;100115.03;1703829;84;21198;-83
2023/03/24 10:07:25;;;;;;;22.27;8.30;;;;;;;18.68;46.44;100106.22;1704711;83;21179;-83
2023/03/24 10:10:42;;;;;;;24.25;8.88;;;;;;;18.58;47.24;100104.02;1706870;82;21711;-83
2023/03/24 10:14:12;;;;;;;18.92;7.85;;;;;;;18.66;47.62;100100.92;1705876;84;21204;-82
2023/03/24 10:17:46;;;;;;;18.55;8.83;;;;;;;18.80;46.93;100093.30;1726807;82;21141;-82
2023/03/24 10:21:08;;;;;;;19.27;8.75;;;;;;;18.73;46.02;100096.19;1719798;83;21198;-82
2023/03/24 10:24:38;;;;;;;17.25;7.17;;;;;;;18.74;47.33;100090.10;1708957;84;21200;-82
2023/03/24 10:27:53;;;;;;;18.77;8.63;;;;;;;18.50;47.17;100081.66;1717558;83;21225;-84
2023/03/24 10:30:59;;;;;;;20.00;8.68;;;;;;;18.46;47.25;100069.36;1705080;83;21197;-82
2023/03/24 10:34:06;;;;;;;22.75;9.00;;;;;;;18.58;47.33;100061.08;1721848;81;21670;-82
2023/03/24 10:37:11;;;;;;;19.20;8.20;;;;;;;18.55;47.03;100048.56;1714474;83;21145;-82
2023/03/24 10:40:23;;;;;;;21.40;8.20;;;;;;;18.55;46.08;100052.72;1730291;83;21190;-82
2023/03/24 10:43:31;;;;;;;30.05;8.70;;;;;;;18.60;46.69;100058.94;1718073;83;21179;-83
2023/03/24 10:46:38;;;;;;;25.62;8.80;;;;;;;18.70;46.66;100055.63;1710407;81;21181;-82
2023/03/24 10:49:44;;;;;;;23.15;9.15;;;;;;;18.72;47.04;100052.08;1723907;83;21217;-82
2023/03/24 10:52:54;;;;;;;23.75;9.35;;;;;;;18.89;46.71;100059.48;1717713;81;21750;-83
2023/03/24 10:56:00;;;;;;;29.18;9.43;;;;;;;19.00;46.40;100050.88;1707606;83;21190;-82
2023/03/24 10:59:06;;;;;;;21.25;8.80;;;;;;;18.95;45.32;100059.07;1716299;81;21307;-82
2023/03/24 11:02:36;;;;;;;19.37;8.03;;;;;;;18.86;45.00;100054.41;1721908;81;21206;-82
2023/03/24 11:05:45;;;;;;;;;;;;;;;18.78;45.36;100058.08;1724187;81;21256;-83
2023/03/24 11:08:51;;;;;;;18.42;8.80;;;;;;;18.71;44.93;100047.63;1722784;83;20218;-82
2023/03/24 11:11:58;;;;;;;20.05;9.03;;;;;;;18.62;45.33;100043.76;1728439;80;21232;-83
2023/03/24 11:15:23;;;;;;;21.93;9.80;;;;;;;18.55;45.38;100041.64;1746433;81;21192;-83
2023/03/24 11:18:29;;;;;;;22.15;9.23;;;;;;;18.47;45.32;100039.20;1723744;82;21288;-83
2023/03/24 11:21:41;;;;;;;24.25;10.60;;;;;;;18.36;45.15;100034.46;1722803;82;21170;-83
2023/03/24 11:24:46;;;;;;;21.10;9.75;;;;;;;18.30;45.43;100042.30;1720623;83;21252;-83
2023/03/24 11:27:51;;;;;;;23.22;10.38;;;;;;;18.32;45.89;100036.00;1726342;82;21818;-83
2023/03/24 11:30:59;;;;;;;20.32;9.48;;;;;;;18.35;46.12;100033.63;1722507;82;22167;-83
2023/03/24 11:34:26;;;;;;;26.07;11.03;;;;;;;18.34;46.31;100028.30;1724393;81;21174;-84
2023/03/24 11:37:35;;;;;;;21.60;8.78;;;;;;;18.27;46.33;100035.32;1724107;82;21152;-83
2023/03/24 11:40:41;;;;;;;21.73;10.23;;;;;;;18.48;46.09;100038.65;1749156;82;21149;-83
2023/03/24 11:43:47;;;;;;;23.83;10.15;;;;;;;18.42;44.32;100036.28;1707178;82;21212;-83
2023/03/24 11:47:02;;;;;;;23.80;10.93;;;;;;;18.38;44.60;100036.45;1723701;83;21243;-84
2023/03/24 11:50:24;;;;;;;24.90;10.32;;;;;;;18.42;46.01;100036.28;1716970;82;21264;-83
2023/03/24 11:53:37;;;;;;;34.18;10.65;;;;;;;18.33;46.19;100030.22;1719670;82;21279;-83
2023/03/24 11:56:52;;;;;;;17.92;9.53;;;;;;;18.36;45.64;100033.92;1718698;82;21137;-84
2023/03/24 12:00:25;;;;;;;31.73;10.50;;;;;;;18.33;46.11;100037.14;1733140;82;21634;-83
2023/03/24 12:04:12;;;;;;;18.10;9.43;;;;;;;18.28;45.14;100026.47;1726532;82;21157;-84
2023/03/24 12:07:42;;;;;;;21.65;8.88;;;;;;;18.36;45.50;100017.30;1721534;83;21221;-84
2023/03/24 12:10:55;;;;;;;16.60;8.43;;;;;;;18.43;45.46;100019.97;1729570;82;21248;-83
2023/03/24 12:14:04;;;;;;;32.55;10.25;;;;;;;18.36;45.41;100026.16;1720521;82;21185;-83
2023/03/24 12:17:30;;;;;;;28.65;10.93;;;;;;;18.45;45.75;100021.98;1770495;80;21173;-83
2023/03/24 12:20:39;;;;;;;21.97;8.95;;;;;;;18.27;45.96;100015.09;1758943;79;21186;-83
2023/03/24 12:24:01;;;;;;;24.00;9.18;;;;;;;18.34;45.37;100010.30;1702661;83;21802;-83
2023/03/24 12:27:07;;;;;;;19.27;7.75;;;;;;;18.31;45.25;100013.02;1720561;82;21194;-83
2023/03/24 12:30:57;;;;;;;24.15;8.65;;;;;;;18.19;44.74;100010.72;1775341;79;21752;-82
2023/03/24 12:34:33;;;;;;;15.60;7.47;;;;;;;18.16;44.52;100007.56;1777825;79;21187;-82
2023/03/24 12:38:13;;;;;;;16.67;7.30;;;;;;;18.08;44.30;99992.98;1772561;79;21730;-82
2023/03/24 12:41:37;;;;;;;18.50;7.20;;;;;;;18.09;45.12;99998.82;1781511;79;21170;-82
2023/03/24 12:45:14;;;;;;;16.95;7.22;;;;;;;18.00;44.52;100000.22;1780280;79;21226;-83
2023/03/24 12:48:36;;;;;;;14.68;7.42;;;;;;;17.85;44.33;99997.01;1777368;79;21177;-82
2023/03/24 12:52:01;;;;;;;15.10;6.95;;;;;;;17.74;44.11;99995.87;1768629;81;21196;-82
2023/03/24 12:55:24;;;;;;;15.13;7.10;;;;;;;17.72;44.33;99992.98;1768702;81;21739;-82
2023/03/24 12:58:47;;;;;;;19.73;7.37;;;;;;;17.62;44.28;99991.59;1774103;79;21276;-83
2023/03/24 13:01:58;;;;;;;16.27;7.30;;;;;;;17.68;44.97;99989.82;1773634;79;21159;-83
2023/03/24 13:05:09;;;;;;;15.90;7.37;;;;;;;17.55;45.00;99989.45;1759539;81;21193;-82
2023/03/24 13:08:22;;;;;;;15.13;7.78;;;;;;;17.56;45.49;99991.69;1768540;79;21165;-82
2023/03/24 13:11:32;;;;;;;12.00;6.28;;;;;;;17.56;45.64;99985.61;1769383;80;21844;-82
2023/03/24 13:14:44;;;;;;;19.17;7.40;;;;;;;17.52;45.40;99991.28;1773457;79;21196;-82
2023/03/24 13:18:05;;;;;;;19.60;7.12;;;;;;;17.46;45.81;99992.75;1783990;79;21173;-83
2023/03/24 13:21:28;;;;;;;33.13;7.40;;;;;;;17.46;45.60;99987.23;1783645;79;21222;-82
2023/03/24 13:24:33;;;;;;;20.00;7.35;;;;;;;17.38;46.05;99985.59;1779428;79;21766;-83
2023/03/24 13:27:44;;;;;;;17.35;6.67;;;;;;;17.36;45.52;99982.19;1807457;79;21198;-82
2023/03/24 13:30:49;;;;;;;18.10;6.53;;;;;;;17.33;45.51;99980.75;1776316;80;21246;-82
2023/03/24 13:33:55;;;;;;;15.03;7.03;;;;;;;17.27;45.50;99971.16;1777166;79;21178;-82
2023/03/24 13:37:12;;;;;;;24.07;7.10;;;;;;;17.25;45.21;99976.89;1777592;80;21744;-82
2023/03/24 13:40:33;;;;;;;11.78;6.12;;;;;;;17.29;45.89;99975.37;1780249;79;21190;-83
2023/03/24 13:43:40;;;;;;;14.98;7.03;;;;;;;17.25;45.43;99974.66;1811115;79;21418;-83
2023/03/24 13:46:47;;;;;;;15.55;6.22;;;;;;;17.25;45.05;99969.14;1811135;79;21181;-83
2023/03/24 13:50:03;;;;;;;14.33;6.58;;;;;;;17.20;45.80;99975.35;1763051;80;21204;-83
2023/03/24 13:53:19;;;;;;;13.88;6.17;;;;;;;17.18;45.47;99969.22;1774782;80;21154;-82
2023/03/24 13:56:42;;;;;;;20.40;6.45;;;;;;;17.25;45.47;99968.59;1761151;79;21207;-82
2023/03/24 13:59:50;;;;;;;11.88;6.35;;;;;;;17.18;45.10;99968.38;1777724;80;21206;-83
2023/03/24 14:02:58;;;;;;;15.83;7.20;;;;;;;17.14;45.14;99958.84;1777777;80;21203;-83
2023/03/24 14:06:10;;;;;;;15.13;6.57;;;;;;;17.19;45.37;99959.84;1778363;80;21218;-82
2023/03/24 14:09:32;;;;;;;14.55;6.22;;;;;;;17.16;45.31;99959.45;1777632;80;21446;-83
2023/03/24 14:12:32;;;;;;;18.42;6.75;;;;;;;17.13;45.37;99950.25;1779076;80;21234;-83
2023/03/24 14:15:41;;;;;;;;;;;;;;;17.11;45.44;99955.98;1780162;79;21213;-82
2023/03/24 14:18:48;;;;;;;19.70;6.27;;;;;;;17.15;45.79;99944.80;1775971;81;20624;-83
2023/03/24 14:22:00;;;;;;;13.68;6.12;;;;;;;16.99;45.91;99940.70;1775776;81;21222;-82
2023/03/24 14:25:30;;;;;;;20.10;6.85;;;;;;;16.88;46.14;99938.67;1775851;81;21215;-82
2023/03/24 14:28:52;;;;;;;16.57;6.40;;;;;;;16.90;46.27;99933.78;1777607;80;21217;-82
2023/03/24 14:31:59;;;;;;;12.93;6.35;;;;;;;16.73;46.33;99936.25;1778473;80;21189;-82
2023/03/24 14:35:06;;;;;;;21.77;7.00;;;;;;;16.59;47.09;99932.72;1777213;80;21731;-82
2023/03/24 14:38:23;;;;;;;21.48;6.72;;;;;;;16.56;47.20;99933.70;1779119;80;21240;-82
2023/03/24 14:41:38;;;;;;;16.17;6.50;;;;;;;16.43;47.06;99935.20;1779155;80;21185;-83
2023/03/24 14:44:58;;;;;;;14.93;6.10;;;;;;;16.40;47.06;99934.27;1779094;80;21173;-83
2023/03/24 14:48:06;;;;;;;17.92;7.10;;;;;;;16.32;47.50;99939.50;1773820;80;21173;-83